Rocky Mountain House, Canada
Current Conditions -  °F | °C
As of 8:00 AM on Wednesday 26 Nov 2014 (Local Time) from CYQF Reporting Station
Haze Haze  
Wind Chill: 18°   Ceiling: 14000
Heat Index: 18°   Visibility: 4mi
Dew Point: 18°   Wind: 2mph
Humidity: 100%   Direction: 150°SSE
Pressure: 30.13"   Gusts: NA
Location:  52.38°N, 114.93°W
Report Text: CYQF 261500Z 15002KT 4SM BR FEW040 OVC140 M08/M08 A3013 RMK SC1AC7 SLP260
Loading
Personal Weather Stations






























Interactive Weather Map New forecast layout! Learn more

10-Day Weather Forecast

Advertisements
Track Severe Weather on mobile